createdAt,value
2018-06-03T00:00:19.226Z,54.60
2018-06-03T00:00:50.968Z,55.10
2018-06-03T00:01:23.479Z,54.40
2018-06-03T00:01:55.244Z,54.40
2018-06-03T00:02:26.997Z,54.40
2018-06-03T00:02:58.734Z,54.50
2018-06-03T00:03:30.490Z,54.50
2018-06-03T00:04:02.210Z,54.50
2018-06-03T00:04:33.954Z,54.50
2018-06-03T00:05:06.465Z,55.00
2018-06-03T00:05:38.230Z,54.50
2018-06-03T00:06:10.699Z,54.50
2018-06-03T00:06:42.538Z,54.50
2018-06-03T00:07:15.021Z,54.50
2018-06-03T00:07:46.755Z,55.10
2018-06-03T00:08:18.498Z,54.40
2018-06-03T00:08:50.267Z,54.50
2018-06-03T00:09:21.999Z,54.50
2018-06-03T00:09:53.794Z,54.50
2018-06-03T00:10:26.307Z,54.50
2018-06-03T00:10:58.050Z,54.50
2018-06-03T00:11:29.790Z,54.50
2018-06-03T00:12:01.527Z,54.50
2018-06-03T00:12:33.336Z,54.50
2018-06-03T00:13:05.333Z,54.50
2018-06-03T00:13:37.100Z,54.50
2018-06-03T00:14:08.833Z,54.40
2018-06-03T00:14:40.577Z,54.60
2018-06-03T00:15:12.312Z,54.60
2018-06-03T00:15:44.075Z,54.60
2018-06-03T00:16:15.813Z,54.60
2018-06-03T00:16:47.548Z,54.60
2018-06-03T00:17:19.319Z,54.70
2018-06-03T00:17:51.067Z,54.70
2018-06-03T00:18:22.786Z,55.20
2018-06-03T00:18:54.523Z,54.70
2018-06-03T00:19:26.261Z,54.70
2018-06-03T00:19:58.015Z,54.60
2018-06-03T00:20:29.759Z,54.60
2018-06-03T00:21:01.518Z,54.60
2018-06-03T00:21:33.327Z,54.60
2018-06-03T00:22:05.892Z,54.60
2018-06-03T00:22:38.359Z,54.60
2018-06-03T00:23:10.097Z,54.60
2018-06-03T00:23:41.867Z,54.60
2018-06-03T00:24:13.587Z,54.60
2018-06-03T00:24:45.333Z,54.70
2018-06-03T00:25:17.082Z,54.70
2018-06-03T00:25:48.840Z,54.70
2018-06-03T00:26:20.584Z,54.70
2018-06-03T00:26:52.333Z,54.70
2018-06-03T00:27:24.842Z,54.70
2018-06-03T00:27:56.683Z,54.70
2018-06-03T00:28:28.398Z,54.70
2018-06-03T00:29:00.206Z,54.70
2018-06-03T00:29:31.952Z,54.70
2018-06-03T00:30:04.451Z,54.70
2018-06-03T00:30:36.184Z,54.70
2018-06-03T00:31:07.921Z,54.70
2018-06-03T00:31:39.667Z,54.70
2018-06-03T00:32:11.414Z,54.70
2018-06-03T00:32:43.175Z,54.70
2018-06-03T00:33:14.924Z,54.80
2018-06-03T00:33:46.683Z,54.70
2018-06-03T00:34:18.389Z,54.80
2018-06-03T00:35:27.768Z,54.80
2018-06-03T00:35:59.557Z,54.90
2018-06-03T00:37:03.298Z,54.90
2018-06-03T00:37:35.023Z,54.90
2018-06-03T00:38:06.737Z,54.80
2018-06-03T00:39:10.479Z,54.80
2018-06-03T00:39:42.308Z,54.80
2018-06-03T00:40:14.027Z,54.80
2018-06-03T00:40:45.737Z,54.80
2018-06-03T00:41:17.503Z,55.40
2018-06-03T00:41:49.201Z,54.80
2018-06-03T00:42:20.942Z,54.80
2018-06-03T00:42:52.712Z,54.80
2018-06-03T00:43:24.429Z,54.80
2018-06-03T00:43:56.163Z,54.80
2018-06-03T00:44:27.889Z,54.70
2018-06-03T00:44:59.621Z,54.70
2018-06-03T00:45:31.342Z,54.70
2018-06-03T00:46:03.171Z,54.70
2018-06-03T00:46:34.883Z,54.70
2018-06-03T00:47:06.606Z,54.70
2018-06-03T00:47:38.335Z,54.70
2018-06-03T00:48:10.070Z,54.70
2018-06-03T00:48:41.779Z,54.80
2018-06-03T00:49:13.538Z,54.40
2018-06-03T00:49:45.262Z,54.80
2018-06-03T00:50:16.985Z,54.70
2018-06-03T00:50:48.718Z,54.80
2018-06-03T00:51:20.428Z,54.80
2018-06-03T00:51:52.163Z,54.90
2018-06-03T00:52:23.900Z,54.90
2018-06-03T00:52:55.626Z,54.90
2018-06-03T00:53:27.350Z,54.90
2018-06-03T00:53:59.104Z,55.00
2018-06-03T00:54:30.909Z,55.00
2018-06-03T00:55:02.641Z,55.00
2018-06-03T00:55:34.390Z,55.00
2018-06-03T00:56:06.106Z,54.90
2018-06-03T00:56:37.829Z,55.10
2018-06-03T00:57:09.560Z,55.00
2018-06-03T00:57:41.304Z,55.00
2018-06-03T00:58:13.018Z,55.00
2018-06-03T00:58:44.751Z,55.00
2018-06-03T00:59:16.474Z,55.00
2018-06-03T00:59:48.198Z,54.90
2018-06-03T01:00:20.032Z,54.90
2018-06-03T01:00:51.726Z,54.90
2018-06-03T01:01:55.521Z,54.90
2018-06-03T01:02:27.256Z,54.90
2018-06-03T01:02:58.989Z,54.90
2018-06-03T01:03:30.734Z,54.90
2018-06-03T01:04:02.497Z,54.90
2018-06-03T01:04:34.210Z,54.90
2018-06-03T01:05:05.946Z,54.80
2018-06-03T01:05:37.704Z,54.80
2018-06-03T01:06:09.443Z,54.80
2018-06-03T01:06:41.186Z,54.80
2018-06-03T01:07:12.924Z,54.80
2018-06-03T01:07:44.658Z,54.80
2018-06-03T01:08:16.394Z,54.70
2018-06-03T01:08:48.161Z,54.70
2018-06-03T01:09:19.871Z,54.80
2018-06-03T01:09:51.594Z,54.80
2018-06-03T01:10:23.339Z,54.80
2018-06-03T01:10:55.082Z,54.80
2018-06-03T01:11:26.785Z,54.80
2018-06-03T01:11:58.573Z,54.80
2018-06-03T01:12:30.299Z,54.90
2018-06-03T01:13:02.018Z,54.80
2018-06-03T01:13:33.743Z,54.80
2018-06-03T01:14:05.465Z,54.80
2018-06-03T01:14:37.201Z,54.80
2018-06-03T01:15:08.946Z,54.80
2018-06-03T01:15:40.673Z,54.80
2018-06-03T01:16:12.400Z,54.80
2018-06-03T01:16:44.186Z,54.80
2018-06-03T01:17:15.874Z,54.80
2018-06-03T01:17:47.601Z,54.90
2018-06-03T01:18:19.346Z,54.90
2018-06-03T01:18:51.066Z,54.90
2018-06-03T01:19:22.808Z,54.90
2018-06-03T01:19:54.538Z,55.00
2018-06-03T01:20:26.268Z,55.00
2018-06-03T01:20:57.994Z,55.00
2018-06-03T01:21:29.740Z,54.80
2018-06-03T01:22:01.466Z,54.90
2018-06-03T01:22:33.194Z,54.90
2018-06-03T01:23:04.925Z,54.90
2018-06-03T01:23:36.660Z,55.00
2018-06-03T01:24:08.398Z,54.90
2018-06-03T01:24:40.139Z,54.90
2018-06-03T01:25:11.857Z,54.90
2018-06-03T01:25:43.570Z,54.90
2018-06-03T01:26:15.299Z,54.90
2018-06-03T01:26:47.042Z,54.90
2018-06-03T01:27:18.768Z,54.90
2018-06-03T01:27:50.482Z,54.90
2018-06-03T01:28:22.203Z,54.90
2018-06-03T01:28:53.961Z,54.90
2018-06-03T01:29:25.702Z,54.90
2018-06-03T01:29:57.428Z,54.90
2018-06-03T01:30:29.181Z,54.90
2018-06-03T01:31:00.910Z,54.90
2018-06-03T01:31:32.643Z,54.90
2018-06-03T01:32:04.386Z,54.90
2018-06-03T01:32:36.099Z,54.90
2018-06-03T01:33:07.839Z,54.90
2018-06-03T01:33:39.670Z,55.00
2018-06-03T01:34:11.422Z,54.90
2018-06-03T01:34:43.177Z,54.90
2018-06-03T01:35:14.909Z,54.90
2018-06-03T01:35:46.666Z,54.90
2018-06-03T01:36:18.361Z,54.90
2018-06-03T01:36:50.130Z,54.90
2018-06-03T01:37:21.845Z,54.90
2018-06-03T01:37:53.619Z,54.90
2018-06-03T01:38:25.366Z,54.90
2018-06-03T01:38:57.090Z,54.90
2018-06-03T01:39:28.878Z,54.90
2018-06-03T01:40:00.601Z,54.90
2018-06-03T01:40:32.336Z,54.90
2018-06-03T01:41:04.067Z,54.90
2018-06-03T01:41:35.822Z,54.90
2018-06-03T01:42:08.452Z,54.90
2018-06-03T01:42:40.579Z,54.90
2018-06-03T01:43:12.541Z,55.00
2018-06-03T01:43:44.236Z,55.00
2018-06-03T01:44:15.986Z,54.90
2018-06-03T01:44:48.078Z,54.90
2018-06-03T01:45:19.872Z,55.00
2018-06-03T01:45:51.604Z,54.90
2018-06-03T01:46:23.326Z,54.90
2018-06-03T01:46:55.272Z,54.90
2018-06-03T01:47:27.016Z,55.50
2018-06-03T01:47:58.746Z,54.90
2018-06-03T01:48:30.472Z,54.90
2018-06-03T01:49:02.224Z,54.90
2018-06-03T01:49:33.947Z,55.00
2018-06-03T01:50:05.686Z,54.90
2018-06-03T01:50:37.416Z,54.80
2018-06-03T01:51:09.145Z,54.90
2018-06-03T01:51:40.879Z,54.90
2018-06-03T01:52:12.634Z,54.90
2018-06-03T01:52:44.395Z,54.90
2018-06-03T01:53:16.134Z,54.90
2018-06-03T01:53:47.889Z,54.90
2018-06-03T01:54:19.661Z,54.90
2018-06-03T01:54:51.358Z,54.90
2018-06-03T01:55:23.077Z,54.90
2018-06-03T01:55:54.874Z,54.90
2018-06-03T01:56:26.581Z,54.90
2018-06-03T01:56:58.293Z,54.90
2018-06-03T01:57:30.046Z,54.90
2018-06-03T01:58:01.770Z,54.90
2018-06-03T01:58:33.507Z,54.80
2018-06-03T01:59:05.246Z,54.90
2018-06-03T01:59:36.974Z,54.90
2018-06-03T02:00:08.698Z,55.00
2018-06-03T02:00:40.624Z,54.80
2018-06-03T02:01:12.342Z,54.90
2018-06-03T02:01:44.076Z,54.90
2018-06-03T02:02:15.807Z,54.90
2018-06-03T02:02:47.556Z,54.90
2018-06-03T02:03:19.278Z,54.90
2018-06-03T02:03:50.995Z,54.90
2018-06-03T02:04:22.753Z,54.90
2018-06-03T02:04:54.480Z,54.90
2018-06-03T02:05:26.205Z,54.90
2018-06-03T02:05:57.946Z,54.90
2018-06-03T02:06:29.684Z,55.50
2018-06-03T02:07:01.393Z,54.90
2018-06-03T02:07:33.138Z,54.90
2018-06-03T02:08:04.883Z,55.00
2018-06-03T02:08:36.608Z,54.90
2018-06-03T02:09:08.334Z,54.80
2018-06-03T02:09:40.077Z,54.80
2018-06-03T02:10:11.788Z,54.90
2018-06-03T02:10:43.539Z,54.80
2018-06-03T02:11:15.261Z,54.90
2018-06-03T02:11:46.992Z,54.90
2018-06-03T02:12:18.739Z,54.70
2018-06-03T02:12:50.453Z,54.80
2018-06-03T02:13:22.182Z,54.90
2018-06-03T02:13:53.897Z,54.90
2018-06-03T02:14:25.645Z,54.90
2018-06-03T02:14:57.579Z,54.90
2018-06-03T02:15:29.301Z,54.90
2018-06-03T02:16:01.042Z,54.90
2018-06-03T02:16:32.761Z,55.00
2018-06-03T02:17:04.483Z,54.90
2018-06-03T02:17:36.221Z,55.00
2018-06-03T02:18:40.004Z,54.90
2018-06-03T02:19:43.755Z,54.80
2018-06-03T02:20:15.490Z,54.80
2018-06-03T02:20:47.219Z,54.90
2018-06-03T02:21:18.935Z,54.90
2018-06-03T02:21:50.714Z,54.90
2018-06-03T02:22:22.425Z,54.80
2018-06-03T02:22:54.154Z,54.90
2018-06-03T02:23:25.887Z,55.00
2018-06-03T02:23:57.609Z,54.90
2018-06-03T02:24:29.337Z,54.90
2018-06-03T02:25:01.079Z,54.90
2018-06-03T02:25:32.804Z,54.90
2018-06-03T02:26:04.589Z,54.80
2018-06-03T02:26:36.312Z,54.80
2018-06-03T02:27:08.042Z,54.90
2018-06-03T02:27:39.764Z,54.90
2018-06-03T02:28:11.503Z,54.90
2018-06-03T02:28:43.276Z,54.90
2018-06-03T02:29:14.997Z,54.80
2018-06-03T02:29:46.734Z,54.80
2018-06-03T02:30:18.483Z,54.80
2018-06-03T02:30:50.221Z,54.80
2018-06-03T02:31:22.135Z,54.70
2018-06-03T02:31:53.929Z,54.70
2018-06-03T02:32:25.639Z,54.80
2018-06-03T02:32:57.360Z,54.70
2018-06-03T02:33:29.310Z,54.80
2018-06-03T02:34:01.068Z,54.70
2018-06-03T02:34:32.790Z,54.90
2018-06-03T02:35:04.522Z,54.80
2018-06-03T02:35:36.258Z,54.70
2018-06-03T02:36:07.985Z,54.80
2018-06-03T02:36:39.736Z,54.80
2018-06-03T02:37:11.468Z,54.90
2018-06-03T02:37:43.187Z,54.80
2018-06-03T02:38:14.937Z,54.80
2018-06-03T02:38:46.658Z,54.80
2018-06-03T02:39:18.385Z,54.90
2018-06-03T02:39:50.118Z,54.70
2018-06-03T02:40:21.851Z,54.80
2018-06-03T02:40:53.669Z,54.80
2018-06-03T02:41:25.456Z,54.80
2018-06-03T02:41:57.183Z,54.80
2018-06-03T02:42:29.027Z,54.70
2018-06-03T02:43:00.739Z,54.80
2018-06-03T02:43:32.469Z,54.60
2018-06-03T02:44:04.247Z,54.80
2018-06-03T02:44:35.943Z,54.60
2018-06-03T02:45:07.687Z,54.60
2018-06-03T02:45:39.412Z,54.70
2018-06-03T02:46:11.147Z,54.70
2018-06-03T02:46:42.902Z,54.70
2018-06-03T02:47:14.601Z,54.60
2018-06-03T02:47:46.321Z,54.60
2018-06-03T02:48:18.059Z,55.10
2018-06-03T02:48:49.788Z,54.70
2018-06-03T02:49:21.622Z,54.70
2018-06-03T02:49:53.369Z,54.70
2018-06-03T02:50:25.080Z,54.70
2018-06-03T02:50:56.804Z,54.70
2018-06-03T02:51:28.527Z,54.70
2018-06-03T02:52:00.261Z,54.60
2018-06-03T02:52:32.094Z,54.70
2018-06-03T02:53:03.786Z,54.70
2018-06-03T02:53:35.527Z,54.70
2018-06-03T02:54:07.302Z,54.70
2018-06-03T02:54:39.039Z,54.70
2018-06-03T02:55:10.800Z,55.20
2018-06-03T02:55:42.565Z,54.70
2018-06-03T02:56:14.483Z,54.70
2018-06-03T02:56:46.263Z,54.70
2018-06-03T02:57:18.036Z,54.80
2018-06-03T02:57:49.764Z,54.80
2018-06-03T02:58:21.582Z,54.70
2018-06-03T02:58:53.279Z,54.70
2018-06-03T02:59:57.270Z,54.20
2018-06-03T03:00:29.199Z,54.60
2018-06-03T03:01:00.971Z,54.50
2018-06-03T03:01:32.698Z,54.50
2018-06-03T03:02:04.430Z,54.50
2018-06-03T03:02:36.215Z,54.60
2018-06-03T03:03:07.941Z,54.60
2018-06-03T03:03:39.675Z,54.60
2018-06-03T03:04:11.416Z,54.60
2018-06-03T03:04:43.131Z,54.60
2018-06-03T03:05:14.913Z,54.60
2018-06-03T03:05:46.649Z,54.70
2018-06-03T03:06:18.378Z,54.70
2018-06-03T03:06:50.109Z,54.50
2018-06-03T03:07:22.023Z,54.50
2018-06-03T03:07:53.753Z,54.50
2018-06-03T03:08:25.494Z,54.60
2018-06-03T03:08:57.219Z,55.20
2018-06-03T03:09:28.954Z,54.60
2018-06-03T03:10:00.736Z,54.50
2018-06-03T03:10:32.647Z,54.50
2018-06-03T03:11:04.432Z,54.50
2018-06-03T03:11:36.410Z,54.50
2018-06-03T03:12:08.135Z,54.50
2018-06-03T03:13:11.922Z,54.50
2018-06-03T03:13:43.661Z,54.50
2018-06-03T03:14:15.398Z,55.00
2018-06-03T03:14:47.113Z,54.50
2018-06-03T03:15:19.050Z,54.50
2018-06-03T03:15:50.795Z,54.50
2018-06-03T03:16:22.509Z,54.50
2018-06-03T03:16:54.296Z,54.60
2018-06-03T03:17:25.999Z,54.60
2018-06-03T03:17:57.723Z,54.60
2018-06-03T03:18:29.466Z,54.70
2018-06-03T03:19:01.201Z,55.30
2018-06-03T03:19:32.918Z,54.80
2018-06-03T03:20:04.650Z,54.70
2018-06-03T03:20:36.577Z,54.60
2018-06-03T03:21:08.308Z,54.70
2018-06-03T03:22:12.048Z,55.40
2018-06-03T03:22:43.933Z,54.70
2018-06-03T03:23:15.669Z,54.70
2018-06-03T03:23:47.418Z,54.70
2018-06-03T03:24:19.139Z,55.20
2018-06-03T03:24:50.866Z,54.70
2018-06-03T03:25:22.768Z,54.70
2018-06-03T03:25:54.510Z,54.60
2018-06-03T03:26:26.246Z,54.60
2018-06-03T03:26:57.964Z,54.60
2018-06-03T03:27:29.728Z,54.60
2018-06-03T03:28:01.444Z,54.60
2018-06-03T03:28:33.177Z,54.60
2018-06-03T03:29:04.964Z,54.60
2018-06-03T03:29:36.701Z,54.60
2018-06-03T03:30:08.638Z,54.60
2018-06-03T03:30:40.394Z,54.50
2018-06-03T03:31:12.106Z,54.50
2018-06-03T03:31:43.841Z,54.50
2018-06-03T03:32:15.574Z,54.50
2018-06-03T03:32:47.343Z,54.40
2018-06-03T03:33:19.066Z,54.40
2018-06-03T03:33:50.880Z,54.40
2018-06-03T03:34:22.607Z,54.40
2018-06-03T03:34:54.322Z,54.40
2018-06-03T03:35:26.082Z,54.50
2018-06-03T03:35:57.785Z,54.50
2018-06-03T03:36:29.514Z,54.50
2018-06-03T03:37:01.290Z,54.50
2018-06-03T03:37:32.977Z,54.50
2018-06-03T03:38:36.715Z,54.50
2018-06-03T03:39:08.520Z,54.50
2018-06-03T03:39:40.246Z,54.50
2018-06-03T03:40:11.977Z,54.50
2018-06-03T03:40:43.698Z,54.50
2018-06-03T03:41:15.423Z,54.60
2018-06-03T03:41:47.163Z,54.60
2018-06-03T03:42:18.882Z,54.50
2018-06-03T03:43:22.642Z,54.60
2018-06-03T03:43:54.376Z,54.60
2018-06-03T03:44:26.096Z,54.60
2018-06-03T03:44:57.826Z,54.60
2018-06-03T03:45:29.583Z,54.60
2018-06-03T03:46:01.306Z,54.60
2018-06-03T03:46:33.058Z,54.60
2018-06-03T03:47:04.785Z,54.60
2018-06-03T03:47:36.508Z,54.50
2018-06-03T03:48:08.320Z,54.60
2018-06-03T03:48:40.018Z,54.50
2018-06-03T03:49:43.755Z,54.50
2018-06-03T03:50:15.504Z,54.50
2018-06-03T03:50:47.211Z,54.50
2018-06-03T03:51:18.945Z,54.50
2018-06-03T03:51:50.698Z,54.50
2018-06-03T03:52:54.449Z,54.50
2018-06-03T03:53:26.195Z,54.50
2018-06-03T03:53:57.919Z,54.50
2018-06-03T03:54:29.667Z,54.50
2018-06-03T03:55:01.585Z,54.50
2018-06-03T03:56:05.408Z,54.50
2018-06-03T03:56:37.102Z,54.50
2018-06-03T03:57:08.837Z,54.50
2018-06-03T03:57:40.568Z,54.40
2018-06-03T03:58:12.304Z,54.40
2018-06-03T03:58:44.046Z,54.50
2018-06-03T03:59:15.755Z,54.50
2018-06-03T03:59:47.477Z,54.50
2018-06-03T04:00:51.240Z,54.50
2018-06-03T04:01:22.974Z,54.50
2018-06-03T04:01:54.709Z,54.50
2018-06-03T04:02:26.435Z,54.50
2018-06-03T04:02:58.157Z,54.50
2018-06-03T04:04:01.909Z,54.50
2018-06-03T04:04:33.641Z,54.50
2018-06-03T04:05:05.380Z,54.40
2018-06-03T04:05:37.109Z,54.50
2018-06-03T04:06:08.842Z,54.50
2018-06-03T04:06:40.575Z,54.50
2018-06-03T04:07:12.316Z,54.50
2018-06-03T04:07:44.032Z,54.60
2018-06-03T04:08:15.763Z,54.90
2018-06-03T04:08:47.485Z,54.50
2018-06-03T04:09:19.206Z,54.50
2018-06-03T04:09:50.921Z,54.50
2018-06-03T04:10:22.670Z,54.60
2018-06-03T04:10:54.434Z,54.60
2018-06-03T04:11:26.176Z,54.60
2018-06-03T04:11:58.094Z,54.50
2018-06-03T04:12:29.830Z,54.50
2018-06-03T04:13:01.574Z,54.50
2018-06-03T04:13:33.278Z,54.50
2018-06-03T04:14:05.021Z,54.40
2018-06-03T04:14:36.745Z,54.40
2018-06-03T04:15:08.480Z,54.40
2018-06-03T04:16:12.221Z,54.50
2018-06-03T04:16:43.963Z,54.50
2018-06-03T04:17:15.679Z,54.50
2018-06-03T04:17:47.622Z,54.50
2018-06-03T04:18:19.379Z,54.40
2018-06-03T04:18:51.101Z,54.40
2018-06-03T04:19:22.832Z,54.40
2018-06-03T04:19:54.764Z,54.40
2018-06-03T04:20:26.499Z,54.40
2018-06-03T04:20:58.249Z,54.40
2018-06-03T04:21:29.983Z,54.40
2018-06-03T04:22:01.764Z,54.40
2018-06-03T04:22:33.495Z,54.40
2018-06-03T04:23:37.285Z,54.50
2018-06-03T04:24:09.030Z,54.50
2018-06-03T04:24:40.780Z,54.50
2018-06-03T04:25:12.498Z,54.50
2018-06-03T04:25:44.243Z,54.40
2018-06-03T04:26:15.986Z,54.40
2018-06-03T04:26:47.841Z,54.30
2018-06-03T04:27:19.576Z,54.90
2018-06-03T04:27:51.301Z,54.30
2018-06-03T04:28:23.053Z,54.30
2018-06-03T04:28:54.784Z,54.30
2018-06-03T04:29:26.503Z,54.30
2018-06-03T04:30:30.290Z,54.30
2018-06-03T04:31:02.058Z,54.20
2018-06-03T04:31:33.989Z,54.20
2018-06-03T04:32:05.746Z,54.30
2018-06-03T04:32:37.484Z,54.30
2018-06-03T04:33:09.201Z,54.30
2018-06-03T04:33:40.966Z,54.20
2018-06-03T04:34:12.703Z,54.30
2018-06-03T04:34:44.436Z,54.30
2018-06-03T04:35:16.293Z,54.90
2018-06-03T04:35:48.025Z,54.30
2018-06-03T04:36:19.769Z,54.30
2018-06-03T04:36:51.511Z,54.30
2018-06-03T04:37:23.247Z,54.30
2018-06-03T04:37:54.983Z,54.10
2018-06-03T04:38:26.763Z,54.10
2018-06-03T04:38:58.494Z,54.20
2018-06-03T04:39:30.521Z,54.20
2018-06-03T04:40:02.252Z,54.10
2018-06-03T04:40:34.007Z,54.20
2018-06-03T04:41:05.925Z,54.20
2018-06-03T04:41:37.668Z,54.20
2018-06-03T04:42:09.399Z,54.20
2018-06-03T04:42:41.131Z,54.20
2018-06-03T04:43:12.851Z,54.20
2018-06-03T04:43:44.595Z,54.20
2018-06-03T04:44:16.320Z,54.10
2018-06-03T04:44:48.174Z,54.10
2018-06-03T04:45:20.091Z,54.00
2018-06-03T04:45:51.834Z,54.10
2018-06-03T04:46:23.519Z,54.10
2018-06-03T04:46:55.250Z,54.00
2018-06-03T04:47:26.992Z,54.00
2018-06-03T04:47:58.720Z,53.90
2018-06-03T04:48:30.442Z,54.00
2018-06-03T04:49:02.190Z,54.00
2018-06-03T04:49:33.910Z,54.00
2018-06-03T04:50:05.658Z,54.00
2018-06-03T04:50:37.401Z,54.10
2018-06-03T04:51:09.129Z,54.10
2018-06-03T04:51:40.871Z,54.10
2018-06-03T04:52:12.609Z,54.10
2018-06-03T04:52:44.366Z,54.10
2018-06-03T04:53:16.097Z,54.00
2018-06-03T04:53:47.825Z,54.10
2018-06-03T04:54:19.660Z,54.00
2018-06-03T04:54:51.368Z,54.00
2018-06-03T04:55:23.121Z,54.00
2018-06-03T04:55:54.866Z,54.00
2018-06-03T04:56:26.585Z,54.10
2018-06-03T04:56:58.328Z,54.10
2018-06-03T04:58:02.053Z,54.20
2018-06-03T04:58:33.774Z,54.10
2018-06-03T04:59:05.513Z,54.10
2018-06-03T04:59:37.258Z,54.10
2018-06-03T05:00:08.989Z,54.10
2018-06-03T05:00:40.713Z,54.10
2018-06-03T05:01:12.466Z,54.10
2018-06-03T05:01:44.183Z,54.10
2018-06-03T05:02:15.937Z,54.10
2018-06-03T05:02:47.664Z,54.10
2018-06-03T05:03:19.381Z,54.00
2018-06-03T05:03:51.100Z,54.10
2018-06-03T05:04:22.852Z,54.10
2018-06-03T05:04:54.585Z,54.60
2018-06-03T05:05:26.306Z,54.00
2018-06-03T05:05:58.042Z,54.10
2018-06-03T05:06:29.791Z,54.10
2018-06-03T05:07:01.734Z,54.10
2018-06-03T05:07:33.488Z,54.10
2018-06-03T05:08:05.217Z,54.10
2018-06-03T05:08:36.935Z,54.10
2018-06-03T05:09:08.653Z,54.10
2018-06-03T05:09:40.390Z,54.10
2018-06-03T05:10:12.115Z,54.10
2018-06-03T05:10:43.855Z,54.70
2018-06-03T05:11:15.872Z,54.10
2018-06-03T05:11:47.604Z,54.00
2018-06-03T05:12:19.326Z,54.10
2018-06-03T05:12:51.059Z,54.10
2018-06-03T05:13:22.781Z,54.10
2018-06-03T05:13:54.501Z,54.00
2018-06-03T05:14:26.241Z,54.00
2018-06-03T05:14:58.014Z,54.00
2018-06-03T05:15:29.960Z,54.00
2018-06-03T05:16:01.683Z,54.10
2018-06-03T05:16:33.405Z,54.10
2018-06-03T05:17:05.130Z,54.00
2018-06-03T05:17:36.892Z,54.00
2018-06-03T05:18:08.605Z,54.00
2018-06-03T05:18:40.345Z,54.00
2018-06-03T05:19:12.084Z,53.90
2018-06-03T05:19:43.805Z,53.90
2018-06-03T05:20:15.546Z,54.00
2018-06-03T05:20:47.321Z,54.00
2018-06-03T05:21:19.038Z,54.10
2018-06-03T05:21:50.769Z,54.10
2018-06-03T05:22:22.492Z,54.10
2018-06-03T05:22:54.218Z,54.00
2018-06-03T05:23:57.966Z,54.10
2018-06-03T05:24:29.735Z,54.00
2018-06-03T05:25:01.468Z,54.00
2018-06-03T05:25:33.386Z,53.90
2018-06-03T05:26:05.132Z,53.90
2018-06-03T05:26:37.026Z,53.90
2018-06-03T05:27:08.768Z,53.90
2018-06-03T05:27:40.481Z,54.00
2018-06-03T05:28:12.214Z,54.00
2018-06-03T05:28:43.951Z,54.00
2018-06-03T05:29:15.661Z,54.00
2018-06-03T05:29:47.416Z,53.90
2018-06-03T05:30:19.143Z,54.00
2018-06-03T05:31:22.907Z,53.90
2018-06-03T05:31:54.669Z,53.90
2018-06-03T05:32:26.406Z,53.90
2018-06-03T05:32:58.151Z,53.90
2018-06-03T05:33:29.956Z,54.50
2018-06-03T05:34:01.706Z,54.00
2018-06-03T05:34:33.447Z,54.50
2018-06-03T05:35:05.250Z,53.90
2018-06-03T05:35:36.994Z,53.90
2018-06-03T05:36:08.739Z,53.90
2018-06-03T05:36:40.455Z,53.90
2018-06-03T05:37:12.185Z,53.80
2018-06-03T05:37:43.948Z,53.80
2018-06-03T05:38:15.678Z,53.80
2018-06-03T05:38:47.417Z,53.80
2018-06-03T05:39:19.157Z,53.80
2018-06-03T05:39:51.064Z,53.90
2018-06-03T05:40:22.807Z,53.80
2018-06-03T05:40:54.544Z,53.90
2018-06-03T05:41:26.263Z,53.90
2018-06-03T05:41:58.049Z,54.20
2018-06-03T05:42:29.778Z,53.90
2018-06-03T05:43:01.707Z,54.00
2018-06-03T05:44:05.503Z,54.00
2018-06-03T05:44:37.233Z,54.40
2018-06-03T05:45:08.970Z,54.00
2018-06-03T05:45:40.711Z,53.90
2018-06-03T05:46:12.438Z,53.90
2018-06-03T05:46:44.190Z,53.90
2018-06-03T05:47:15.919Z,53.80
2018-06-03T05:47:47.638Z,53.80
2018-06-03T05:48:19.367Z,53.70
2018-06-03T05:48:51.116Z,53.70
2018-06-03T05:49:22.820Z,54.20
2018-06-03T05:49:54.543Z,53.70
2018-06-03T05:50:26.291Z,53.70
2018-06-03T05:50:58.000Z,53.70
2018-06-03T05:51:29.741Z,53.70
2018-06-03T05:52:01.471Z,53.70
2018-06-03T05:52:33.190Z,53.70
2018-06-03T05:53:04.932Z,53.70
2018-06-03T05:53:36.674Z,53.70
2018-06-03T05:54:08.452Z,53.70
2018-06-03T05:54:40.189Z,53.70
2018-06-03T05:55:11.931Z,53.70
2018-06-03T05:55:43.652Z,53.60
2018-06-03T05:56:15.392Z,53.60
2018-06-03T05:56:47.116Z,53.60
2018-06-03T05:57:18.859Z,53.60
2018-06-03T05:57:50.594Z,53.60
2018-06-03T05:58:22.337Z,53.70
2018-06-03T05:58:54.052Z,53.60
2018-06-03T05:59:25.771Z,53.60
2018-06-03T05:59:57.497Z,53.70
2018-06-03T06:00:29.322Z,53.60
2018-06-03T06:01:01.056Z,53.60
2018-06-03T06:01:32.766Z,53.60
2018-06-03T06:02:04.522Z,53.70
2018-06-03T06:02:36.275Z,54.40
2018-06-03T06:03:07.967Z,53.90
2018-06-03T06:03:39.727Z,53.60
2018-06-03T06:04:11.463Z,53.70
2018-06-03T06:04:43.208Z,53.80
2018-06-03T06:05:15.132Z,53.80
2018-06-03T06:05:46.849Z,53.70
2018-06-03T06:06:18.566Z,53.70
2018-06-03T06:06:50.285Z,53.70
2018-06-03T06:07:22.063Z,53.70
2018-06-03T06:07:53.775Z,53.70
2018-06-03T06:08:25.515Z,53.70
2018-06-03T06:08:57.263Z,53.80
2018-06-03T06:09:28.986Z,53.70
2018-06-03T06:10:00.789Z,53.80
2018-06-03T06:10:32.578Z,53.80
2018-06-03T06:11:04.293Z,53.80
2018-06-03T06:11:36.017Z,53.70
2018-06-03T06:12:39.817Z,53.70
2018-06-03T06:13:11.542Z,53.80
2018-06-03T06:13:43.271Z,53.80
2018-06-03T06:14:15.029Z,53.80
2018-06-03T06:14:46.758Z,53.80
2018-06-03T06:15:18.488Z,53.80
2018-06-03T06:15:50.229Z,53.80
2018-06-03T06:16:21.961Z,53.80
2018-06-03T06:16:53.715Z,53.70
2018-06-03T06:17:25.440Z,54.00
2018-06-03T06:17:57.158Z,53.70
2018-06-03T06:18:28.902Z,53.70
2018-06-03T06:19:00.638Z,54.30
2018-06-03T06:19:32.364Z,53.70
2018-06-03T06:20:04.096Z,53.70
2018-06-03T06:20:35.836Z,53.80
2018-06-03T06:21:07.541Z,53.80
2018-06-03T06:21:39.262Z,53.90
2018-06-03T06:22:11.002Z,54.00
2018-06-03T06:22:42.741Z,54.00
2018-06-03T06:23:14.479Z,54.00
2018-06-03T06:23:46.206Z,54.00
2018-06-03T06:24:17.927Z,54.00
2018-06-03T06:24:49.708Z,54.00
2018-06-03T06:25:21.417Z,54.00
2018-06-03T06:25:53.141Z,54.00
2018-06-03T06:26:24.864Z,54.00
2018-06-03T06:26:56.659Z,54.00
2018-06-03T06:27:28.360Z,54.20
2018-06-03T06:28:00.091Z,54.10
2018-06-03T06:28:31.861Z,54.30
2018-06-03T06:29:35.629Z,54.20
2018-06-03T06:30:07.630Z,54.20
2018-06-03T06:30:39.449Z,54.30
2018-06-03T06:31:11.198Z,54.30
2018-06-03T06:31:42.963Z,54.40
2018-06-03T06:32:14.683Z,54.40
2018-06-03T06:32:46.418Z,54.40
2018-06-03T06:33:18.163Z,54.40
2018-06-03T06:33:49.875Z,54.40
2018-06-03T06:34:21.635Z,55.00
2018-06-03T06:34:53.370Z,54.40
2018-06-03T06:35:25.087Z,54.40
2018-06-03T06:35:56.837Z,55.00
2018-06-03T06:36:28.696Z,54.40
2018-06-03T06:37:00.551Z,54.40
2018-06-03T06:37:32.289Z,54.40
2018-06-03T06:38:04.011Z,54.30
2018-06-03T06:38:35.749Z,54.30
2018-06-03T06:39:07.485Z,54.30
2018-06-03T06:39:39.195Z,54.30
2018-06-03T06:40:10.925Z,54.30
2018-06-03T06:41:14.701Z,54.00
2018-06-03T06:41:46.435Z,54.30
2018-06-03T06:42:18.182Z,54.40
2018-06-03T06:42:49.909Z,54.40
2018-06-03T06:43:21.645Z,54.40
2018-06-03T06:43:53.428Z,54.50
2018-06-03T06:44:25.124Z,54.40
2018-06-03T06:44:56.853Z,54.40
2018-06-03T06:45:28.578Z,54.30
2018-06-03T06:46:00.315Z,54.30
2018-06-03T06:46:32.066Z,54.40
2018-06-03T06:47:03.821Z,54.40
2018-06-03T06:47:35.534Z,54.50
2018-06-03T06:48:07.279Z,53.90
2018-06-03T06:48:39.030Z,54.50
2018-06-03T06:49:10.756Z,54.50
2018-06-03T06:49:42.505Z,54.50
2018-06-03T06:50:14.251Z,54.50
2018-06-03T06:50:45.991Z,54.50
2018-06-03T06:51:17.942Z,54.50
2018-06-03T06:51:49.703Z,54.40
2018-06-03T06:52:21.431Z,54.30
2018-06-03T06:52:53.305Z,54.30
2018-06-03T06:53:25.070Z,54.40
2018-06-03T06:54:28.815Z,54.30
2018-06-03T06:55:00.563Z,54.30
2018-06-03T06:55:32.491Z,54.30
2018-06-03T06:56:04.234Z,54.30
2018-06-03T06:56:36.077Z,54.30
2018-06-03T06:57:07.806Z,54.30
2018-06-03T06:57:39.550Z,54.30
2018-06-03T06:58:11.311Z,54.40
2018-06-03T06:58:43.030Z,54.50
2018-06-03T06:59:14.771Z,54.40
2018-06-03T07:00:18.595Z,54.60
2018-06-03T07:00:50.429Z,54.50
2018-06-03T07:01:22.160Z,54.50
2018-06-03T07:01:53.937Z,54.50
2018-06-03T07:02:25.652Z,54.50
2018-06-03T07:02:57.667Z,54.50
2018-06-03T07:03:29.494Z,54.90
2018-06-03T07:04:01.249Z,54.60